sensor_id;sensor_type;location;lat;lon;timestamp;P1;durP1;ratioP1;P2;durP2;ratioP2
30072;SDS011;16897;52.422;13.678;2022-10-16T00:01:09;1.50;;;1.40;;
30072;SDS011;16897;52.422;13.678;2022-10-16T00:05:17;1.30;;;1.20;;
30072;SDS011;16897;52.422;13.678;2022-10-16T00:09:19;2.25;;;1.35;;
30072;SDS011;16897;52.422;13.678;2022-10-16T00:13:21;2.78;;;1.30;;
30072;SDS011;16897;52.422;13.678;2022-10-16T00:17:22;1.17;;;1.17;;
30072;SDS011;16897;52.422;13.678;2022-10-16T00:21:26;1.40;;;1.30;;
30072;SDS011;16897;52.422;13.678;2022-10-16T00:25:30;1.65;;;1.27;;
30072;SDS011;16897;52.422;13.678;2022-10-16T00:29:37;1.13;;;1.02;;
30072;SDS011;16897;52.422;13.678;2022-10-16T00:33:39;1.23;;;1.13;;
30072;SDS011;16897;52.422;13.678;2022-10-16T00:37:41;1.50;;;1.20;;
30072;SDS011;16897;52.422;13.678;2022-10-16T00:41:43;1.13;;;1.02;;
30072;SDS011;16897;52.422;13.678;2022-10-16T00:45:45;1.15;;;1.15;;
30072;SDS011;16897;52.422;13.678;2022-10-16T00:49:47;1.00;;;1.00;;
30072;SDS011;16897;52.422;13.678;2022-10-16T00:53:50;1.20;;;1.10;;
30072;SDS011;16897;52.422;13.678;2022-10-16T00:57:53;1.67;;;1.05;;
30072;SDS011;16897;52.422;13.678;2022-10-16T01:01:55;1.25;;;0.93;;
30072;SDS011;16897;52.422;13.678;2022-10-16T01:06:01;2.15;;;0.95;;
30072;SDS011;16897;52.422;13.678;2022-10-16T01:14:53;0.90;;;0.90;;
30072;SDS011;16897;52.422;13.678;2022-10-16T01:19:09;1.02;;;0.98;;
30072;SDS011;16897;52.422;13.678;2022-10-16T01:23:28;0.98;;;0.98;;
30072;SDS011;16897;52.422;13.678;2022-10-16T01:27:50;0.98;;;0.95;;
30072;SDS011;16897;52.422;13.678;2022-10-16T01:32:00;1.10;;;1.02;;
30072;SDS011;16897;52.422;13.678;2022-10-16T01:36:17;0.98;;;0.95;;
30072;SDS011;16897;52.422;13.678;2022-10-16T01:40:24;2.40;;;1.05;;
30072;SDS011;16897;52.422;13.678;2022-10-16T01:44:29;0.88;;;0.88;;
30072;SDS011;16897;52.422;13.678;2022-10-16T01:48:34;1.20;;;1.13;;
30072;SDS011;16897;52.422;13.678;2022-10-16T01:52:38;0.95;;;0.90;;
30072;SDS011;16897;52.422;13.678;2022-10-16T01:56:44;3.88;;;1.33;;
30072;SDS011;16897;52.422;13.678;2022-10-16T02:00:49;1.20;;;1.10;;
30072;SDS011;16897;52.422;13.678;2022-10-16T02:04:54;0.82;;;0.82;;
30072;SDS011;16897;52.422;13.678;2022-10-16T02:09:42;1.48;;;0.82;;
30072;SDS011;16897;52.422;13.678;2022-10-16T02:13:55;0.80;;;0.80;;
30072;SDS011;16897;52.422;13.678;2022-10-16T02:18:03;1.10;;;1.00;;
30072;SDS011;16897;52.422;13.678;2022-10-16T02:22:06;0.80;;;0.80;;
30072;SDS011;16897;52.422;13.678;2022-10-16T02:26:16;2.00;;;1.10;;
30072;SDS011;16897;52.422;13.678;2022-10-16T02:30:38;0.70;;;0.70;;
30072;SDS011;16897;52.422;13.678;2022-10-16T02:35:06;0.80;;;0.80;;
30072;SDS011;16897;52.422;13.678;2022-10-16T02:39:10;0.70;;;0.70;;
30072;SDS011;16897;52.422;13.678;2022-10-16T02:43:12;0.70;;;0.70;;
30072;SDS011;16897;52.422;13.678;2022-10-16T02:47:14;0.75;;;0.75;;
30072;SDS011;16897;52.422;13.678;2022-10-16T02:51:16;1.50;;;0.90;;
30072;SDS011;16897;52.422;13.678;2022-10-16T02:55:17;1.23;;;0.70;;
30072;SDS011;16897;52.422;13.678;2022-10-16T02:59:20;1.27;;;0.80;;
30072;SDS011;16897;52.422;13.678;2022-10-16T03:03:21;0.73;;;0.73;;
30072;SDS011;16897;52.422;13.678;2022-10-16T03:07:23;0.80;;;0.80;;
30072;SDS011;16897;52.422;13.678;2022-10-16T03:11:25;1.05;;;0.88;;
30072;SDS011;16897;52.422;13.678;2022-10-16T03:15:27;0.88;;;0.82;;
30072;SDS011;16897;52.422;13.678;2022-10-16T03:19:30;0.85;;;0.73;;
30072;SDS011;16897;52.422;13.678;2022-10-16T03:23:32;0.70;;;0.70;;
30072;SDS011;16897;52.422;13.678;2022-10-16T03:27:34;0.70;;;0.70;;
30072;SDS011;16897;52.422;13.678;2022-10-16T03:31:35;0.65;;;0.65;;
30072;SDS011;16897;52.422;13.678;2022-10-16T03:35:37;0.63;;;0.63;;
30072;SDS011;16897;52.422;13.678;2022-10-16T03:39:39;2.28;;;0.82;;
30072;SDS011;16897;52.422;13.678;2022-10-16T03:43:41;0.80;;;0.80;;
30072;SDS011;16897;52.422;13.678;2022-10-16T03:47:42;1.20;;;0.70;;
30072;SDS011;16897;52.422;13.678;2022-10-16T03:51:44;1.25;;;0.88;;
30072;SDS011;16897;52.422;13.678;2022-10-16T03:55:46;1.20;;;0.80;;
30072;SDS011;16897;52.422;13.678;2022-10-16T03:59:47;0.63;;;0.63;;
30072;SDS011;16897;52.422;13.678;2022-10-16T04:03:49;0.52;;;0.52;;
30072;SDS011;16897;52.422;13.678;2022-10-16T04:07:51;0.90;;;0.90;;
30072;SDS011;16897;52.422;13.678;2022-10-16T04:11:53;0.70;;;0.70;;
30072;SDS011;16897;52.422;13.678;2022-10-16T04:15:54;0.88;;;0.70;;
30072;SDS011;16897;52.422;13.678;2022-10-16T04:19:56;0.70;;;0.70;;
30072;SDS011;16897;52.422;13.678;2022-10-16T04:23:58;0.77;;;0.77;;
30072;SDS011;16897;52.422;13.678;2022-10-16T04:27:59;0.52;;;0.52;;
30072;SDS011;16897;52.422;13.678;2022-10-16T04:32:01;1.23;;;1.00;;
30072;SDS011;16897;52.422;13.678;2022-10-16T04:36:03;0.90;;;0.70;;
30072;SDS011;16897;52.422;13.678;2022-10-16T04:40:05;0.63;;;0.63;;
30072;SDS011;16897;52.422;13.678;2022-10-16T04:44:08;0.68;;;0.68;;
30072;SDS011;16897;52.422;13.678;2022-10-16T04:48:09;1.90;;;1.42;;
30072;SDS011;16897;52.422;13.678;2022-10-16T04:52:11;0.77;;;0.77;;
30072;SDS011;16897;52.422;13.678;2022-10-16T04:56:13;0.60;;;0.60;;
30072;SDS011;16897;52.422;13.678;2022-10-16T05:00:16;0.80;;;0.60;;
30072;SDS011;16897;52.422;13.678;2022-10-16T05:04:17;0.68;;;0.68;;
30072;SDS011;16897;52.422;13.678;2022-10-16T05:08:19;0.70;;;0.68;;
30072;SDS011;16897;52.422;13.678;2022-10-16T05:12:21;0.80;;;0.80;;
30072;SDS011;16897;52.422;13.678;2022-10-16T05:16:22;0.60;;;0.60;;
30072;SDS011;16897;52.422;13.678;2022-10-16T05:20:24;1.00;;;0.77;;
30072;SDS011;16897;52.422;13.678;2022-10-16T05:24:26;0.80;;;0.80;;
30072;SDS011;16897;52.422;13.678;2022-10-16T05:28:28;0.80;;;0.80;;
30072;SDS011;16897;52.422;13.678;2022-10-16T05:32:30;0.70;;;0.70;;
30072;SDS011;16897;52.422;13.678;2022-10-16T05:36:32;0.85;;;0.85;;
30072;SDS011;16897;52.422;13.678;2022-10-16T05:40:34;0.95;;;0.80;;
30072;SDS011;16897;52.422;13.678;2022-10-16T05:44:36;0.70;;;0.70;;
30072;SDS011;16897;52.422;13.678;2022-10-16T05:48:37;0.75;;;0.70;;
30072;SDS011;16897;52.422;13.678;2022-10-16T05:52:39;0.75;;;0.75;;
30072;SDS011;16897;52.422;13.678;2022-10-16T05:56:41;0.57;;;0.57;;
30072;SDS011;16897;52.422;13.678;2022-10-16T06:00:43;0.93;;;0.80;;
30072;SDS011;16897;52.422;13.678;2022-10-16T06:04:44;0.68;;;0.68;;
30072;SDS011;16897;52.422;13.678;2022-10-16T06:08:47;0.80;;;0.80;;
30072;SDS011;16897;52.422;13.678;2022-10-16T06:12:50;0.60;;;0.60;;
30072;SDS011;16897;52.422;13.678;2022-10-16T06:16:52;1.00;;;0.98;;
30072;SDS011;16897;52.422;13.678;2022-10-16T06:20:54;0.70;;;0.63;;
30072;SDS011;16897;52.422;13.678;2022-10-16T06:24:57;3.42;;;1.08;;
30072;SDS011;16897;52.422;13.678;2022-10-16T06:28:59;0.77;;;0.77;;
30072;SDS011;16897;52.422;13.678;2022-10-16T06:33:01;0.85;;;0.70;;
30072;SDS011;16897;52.422;13.678;2022-10-16T06:37:03;0.50;;;0.50;;
30072;SDS011;16897;52.422;13.678;2022-10-16T06:41:04;2.00;;;0.80;;
30072;SDS011;16897;52.422;13.678;2022-10-16T06:45:07;0.90;;;0.70;;
30072;SDS011;16897;52.422;13.678;2022-10-16T06:49:09;1.38;;;0.68;;
30072;SDS011;16897;52.422;13.678;2022-10-16T06:53:10;0.50;;;0.50;;
30072;SDS011;16897;52.422;13.678;2022-10-16T06:57:12;0.65;;;0.65;;
30072;SDS011;16897;52.422;13.678;2022-10-16T07:01:14;1.83;;;1.73;;
30072;SDS011;16897;52.422;13.678;2022-10-16T07:05:18;0.57;;;0.57;;
30072;SDS011;16897;52.422;13.678;2022-10-16T07:09:19;1.00;;;0.80;;
30072;SDS011;16897;52.422;13.678;2022-10-16T07:13:21;1.35;;;0.90;;
30072;SDS011;16897;52.422;13.678;2022-10-16T07:17:22;1.33;;;1.02;;
30072;SDS011;16897;52.422;13.678;2022-10-16T07:21:25;0.98;;;0.95;;
30072;SDS011;16897;52.422;13.678;2022-10-16T07:25:29;1.20;;;1.10;;
30072;SDS011;16897;52.422;13.678;2022-10-16T07:29:31;1.33;;;1.23;;
30072;SDS011;16897;52.422;13.678;2022-10-16T07:33:33;1.80;;;1.38;;
30072;SDS011;16897;52.422;13.678;2022-10-16T07:37:36;0.93;;;0.88;;
30072;SDS011;16897;52.422;13.678;2022-10-16T07:41:37;2.05;;;1.00;;
30072;SDS011;16897;52.422;13.678;2022-10-16T07:45:46;1.45;;;0.77;;
30072;SDS011;16897;52.422;13.678;2022-10-16T07:49:50;0.70;;;0.70;;
30072;SDS011;16897;52.422;13.678;2022-10-16T07:53:52;0.95;;;0.95;;
30072;SDS011;16897;52.422;13.678;2022-10-16T07:57:54;0.75;;;0.70;;
30072;SDS011;16897;52.422;13.678;2022-10-16T08:01:56;1.23;;;0.80;;
30072;SDS011;16897;52.422;13.678;2022-10-16T08:05:58;0.70;;;0.70;;
30072;SDS011;16897;52.422;13.678;2022-10-16T08:10:01;0.60;;;0.60;;
30072;SDS011;16897;52.422;13.678;2022-10-16T08:14:03;0.80;;;0.80;;
30072;SDS011;16897;52.422;13.678;2022-10-16T08:18:05;0.98;;;0.85;;
30072;SDS011;16897;52.422;13.678;2022-10-16T08:22:06;0.73;;;0.73;;
30072;SDS011;16897;52.422;13.678;2022-10-16T08:26:08;0.98;;;0.90;;
30072;SDS011;16897;52.422;13.678;2022-10-16T08:30:10;0.63;;;0.63;;
30072;SDS011;16897;52.422;13.678;2022-10-16T08:34:12;5.10;;;0.73;;
30072;SDS011;16897;52.422;13.678;2022-10-16T08:38:13;0.80;;;0.80;;
30072;SDS011;16897;52.422;13.678;2022-10-16T08:46:47;1.35;;;1.25;;
30072;SDS011;16897;52.422;13.678;2022-10-16T08:51:18;0.70;;;0.70;;
30072;SDS011;16897;52.422;13.678;2022-10-16T08:55:48;0.60;;;0.60;;
30072;SDS011;16897;52.422;13.678;2022-10-16T08:59:52;0.80;;;0.80;;
30072;SDS011;16897;52.422;13.678;2022-10-16T09:12:42;0.73;;;0.73;;
30072;SDS011;16897;52.422;13.678;2022-10-16T09:17:00;0.70;;;0.70;;
30072;SDS011;16897;52.422;13.678;2022-10-16T09:21:41;0.60;;;0.60;;
30072;SDS011;16897;52.422;13.678;2022-10-16T09:25:47;1.02;;;0.68;;
30072;SDS011;16897;52.422;13.678;2022-10-16T09:29:50;0.80;;;0.80;;
30072;SDS011;16897;52.422;13.678;2022-10-16T09:33:53;0.60;;;0.60;;
30072;SDS011;16897;52.422;13.678;2022-10-16T09:38:05;0.60;;;0.60;;
30072;SDS011;16897;52.422;13.678;2022-10-16T09:42:07;0.75;;;0.68;;
30072;SDS011;16897;52.422;13.678;2022-10-16T09:50:54;0.82;;;0.50;;
30072;SDS011;16897;52.422;13.678;2022-10-16T09:55:02;0.80;;;0.80;;
30072;SDS011;16897;52.422;13.678;2022-10-16T09:59:17;0.60;;;0.60;;
30072;SDS011;16897;52.422;13.678;2022-10-16T10:03:55;0.93;;;0.70;;
30072;SDS011;16897;52.422;13.678;2022-10-16T10:08:01;0.60;;;0.60;;
30072;SDS011;16897;52.422;13.678;2022-10-16T10:12:15;0.73;;;0.73;;
30072;SDS011;16897;52.422;13.678;2022-10-16T10:16:24;0.63;;;0.63;;
30072;SDS011;16897;52.422;13.678;2022-10-16T10:24:34;1.02;;;0.70;;
30072;SDS011;16897;52.422;13.678;2022-10-16T10:42:25;0.50;;;0.50;;
30072;SDS011;16897;52.422;13.678;2022-10-16T10:46:50;0.57;;;0.55;;
30072;SDS011;16897;52.422;13.678;2022-10-16T10:51:05;0.47;;;0.47;;
30072;SDS011;16897;52.422;13.678;2022-10-16T10:55:25;0.50;;;0.50;;
30072;SDS011;16897;52.422;13.678;2022-10-16T11:00:21;0.50;;;0.50;;
30072;SDS011;16897;52.422;13.678;2022-10-16T11:14:10;0.63;;;0.60;;
30072;SDS011;16897;52.422;13.678;2022-10-16T11:18:25;1.52;;;0.60;;
30072;SDS011;16897;52.422;13.678;2022-10-16T11:22:45;0.70;;;0.70;;
30072;SDS011;16897;52.422;13.678;2022-10-16T11:26:49;0.60;;;0.60;;
30072;SDS011;16897;52.422;13.678;2022-10-16T11:31:11;1.33;;;0.50;;
30072;SDS011;16897;52.422;13.678;2022-10-16T11:40:31;1.63;;;0.75;;
30072;SDS011;16897;52.422;13.678;2022-10-16T11:48:56;0.60;;;0.60;;
30072;SDS011;16897;52.422;13.678;2022-10-16T11:53:08;0.60;;;0.60;;
30072;SDS011;16897;52.422;13.678;2022-10-16T11:57:26;0.47;;;0.47;;
30072;SDS011;16897;52.422;13.678;2022-10-16T12:05:55;0.40;;;0.40;;
30072;SDS011;16897;52.422;13.678;2022-10-16T12:10:28;0.50;;;0.50;;
30072;SDS011;16897;52.422;13.678;2022-10-16T12:14:34;0.77;;;0.60;;
30072;SDS011;16897;52.422;13.678;2022-10-16T12:18:41;0.60;;;0.60;;
30072;SDS011;16897;52.422;13.678;2022-10-16T12:22:50;0.82;;;0.50;;
30072;SDS011;16897;52.422;13.678;2022-10-16T12:26:56;0.52;;;0.52;;
30072;SDS011;16897;52.422;13.678;2022-10-16T12:30:58;0.60;;;0.60;;
30072;SDS011;16897;52.422;13.678;2022-10-16T12:35:16;0.50;;;0.50;;
30072;SDS011;16897;52.422;13.678;2022-10-16T12:39:27;0.55;;;0.55;;
30072;SDS011;16897;52.422;13.678;2022-10-16T12:51:52;0.40;;;0.40;;
30072;SDS011;16897;52.422;13.678;2022-10-16T13:05:12;0.50;;;0.50;;
30072;SDS011;16897;52.422;13.678;2022-10-16T13:22:40;0.57;;;0.50;;
30072;SDS011;16897;52.422;13.678;2022-10-16T13:27:07;0.50;;;0.50;;
30072;SDS011;16897;52.422;13.678;2022-10-16T13:31:13;0.73;;;0.60;;
30072;SDS011;16897;52.422;13.678;2022-10-16T13:35:28;0.40;;;0.40;;
30072;SDS011;16897;52.422;13.678;2022-10-16T13:39:33;0.50;;;0.50;;
30072;SDS011;16897;52.422;13.678;2022-10-16T13:43:36;0.50;;;0.50;;
30072;SDS011;16897;52.422;13.678;2022-10-16T13:47:43;0.40;;;0.40;;
30072;SDS011;16897;52.422;13.678;2022-10-16T13:51:58;0.40;;;0.40;;
30072;SDS011;16897;52.422;13.678;2022-10-16T13:56:05;0.50;;;0.50;;
30072;SDS011;16897;52.422;13.678;2022-10-16T14:00:51;0.40;;;0.40;;
30072;SDS011;16897;52.422;13.678;2022-10-16T14:04:39;0.45;;;0.45;;
30072;SDS011;16897;52.422;13.678;2022-10-16T14:08:42;0.63;;;0.50;;
30072;SDS011;16897;52.422;13.678;2022-10-16T14:13:00;0.40;;;0.40;;
30072;SDS011;16897;52.422;13.678;2022-10-16T14:17:05;0.60;;;0.60;;
30072;SDS011;16897;52.422;13.678;2022-10-16T14:21:07;0.40;;;0.40;;
30072;SDS011;16897;52.422;13.678;2022-10-16T14:29:20;1.20;;;0.37;;
30072;SDS011;16897;52.422;13.678;2022-10-16T14:33:23;0.50;;;0.50;;
30072;SDS011;16897;52.422;13.678;2022-10-16T14:37:34;0.40;;;0.40;;
30072;SDS011;16897;52.422;13.678;2022-10-16T14:41:47;0.55;;;0.55;;
30072;SDS011;16897;52.422;13.678;2022-10-16T14:45:51;0.40;;;0.40;;
30072;SDS011;16897;52.422;13.678;2022-10-16T14:49:56;0.57;;;0.50;;
30072;SDS011;16897;52.422;13.678;2022-10-16T14:53:59;0.80;;;0.80;;
30072;SDS011;16897;52.422;13.678;2022-10-16T14:58:02;0.60;;;0.60;;
30072;SDS011;16897;52.422;13.678;2022-10-16T15:06:29;0.52;;;0.52;;
30072;SDS011;16897;52.422;13.678;2022-10-16T15:10:30;0.75;;;0.75;;
30072;SDS011;16897;52.422;13.678;2022-10-16T15:14:38;0.60;;;0.60;;
30072;SDS011;16897;52.422;13.678;2022-10-16T15:18:40;0.50;;;0.50;;
30072;SDS011;16897;52.422;13.678;2022-10-16T15:22:42;0.50;;;0.50;;
30072;SDS011;16897;52.422;13.678;2022-10-16T15:26:44;0.50;;;0.50;;
30072;SDS011;16897;52.422;13.678;2022-10-16T15:30:46;0.52;;;0.52;;
30072;SDS011;16897;52.422;13.678;2022-10-16T15:34:52;0.52;;;0.50;;
30072;SDS011;16897;52.422;13.678;2022-10-16T15:38:53;0.50;;;0.50;;
30072;SDS011;16897;52.422;13.678;2022-10-16T15:42:55;0.50;;;0.50;;
30072;SDS011;16897;52.422;13.678;2022-10-16T15:46:57;0.50;;;0.50;;
30072;SDS011;16897;52.422;13.678;2022-10-16T15:50:59;1.63;;;0.60;;
30072;SDS011;16897;52.422;13.678;2022-10-16T15:55:09;1.10;;;0.98;;
30072;SDS011;16897;52.422;13.678;2022-10-16T15:59:12;6.75;;;2.50;;
30072;SDS011;16897;52.422;13.678;2022-10-16T16:03:13;3.55;;;2.17;;
30072;SDS011;16897;52.422;13.678;2022-10-16T16:07:15;4.15;;;2.45;;
30072;SDS011;16897;52.422;13.678;2022-10-16T16:11:17;3.50;;;1.60;;
30072;SDS011;16897;52.422;13.678;2022-10-16T16:15:20;2.55;;;1.48;;
30072;SDS011;16897;52.422;13.678;2022-10-16T16:19:23;1.45;;;1.27;;
30072;SDS011;16897;52.422;13.678;2022-10-16T16:23:24;3.63;;;1.70;;
30072;SDS011;16897;52.422;13.678;2022-10-16T16:27:26;9.38;;;1.98;;
30072;SDS011;16897;52.422;13.678;2022-10-16T16:31:29;1.85;;;1.25;;
30072;SDS011;16897;52.422;13.678;2022-10-16T16:35:33;2.17;;;1.20;;
30072;SDS011;16897;52.422;13.678;2022-10-16T16:39:34;4.78;;;2.08;;
30072;SDS011;16897;52.422;13.678;2022-10-16T16:43:36;3.55;;;3.00;;
30072;SDS011;16897;52.422;13.678;2022-10-16T16:47:39;6.40;;;4.88;;
30072;SDS011;16897;52.422;13.678;2022-10-16T16:51:41;10.02;;;6.07;;
30072;SDS011;16897;52.422;13.678;2022-10-16T16:55:42;11.55;;;6.57;;
30072;SDS011;16897;52.422;13.678;2022-10-16T16:59:44;10.23;;;7.85;;
30072;SDS011;16897;52.422;13.678;2022-10-16T17:03:47;12.38;;;9.70;;
30072;SDS011;16897;52.422;13.678;2022-10-16T17:07:50;12.80;;;9.43;;
30072;SDS011;16897;52.422;13.678;2022-10-16T17:11:52;11.50;;;8.23;;
30072;SDS011;16897;52.422;13.678;2022-10-16T17:15:54;14.38;;;9.02;;
30072;SDS011;16897;52.422;13.678;2022-10-16T17:19:56;11.98;;;8.30;;
30072;SDS011;16897;52.422;13.678;2022-10-16T17:23:58;12.77;;;7.93;;
30072;SDS011;16897;52.422;13.678;2022-10-16T17:28:00;11.68;;;8.02;;
30072;SDS011;16897;52.422;13.678;2022-10-16T17:32:02;10.13;;;6.60;;
30072;SDS011;16897;52.422;13.678;2022-10-16T17:36:04;10.48;;;7.45;;
30072;SDS011;16897;52.422;13.678;2022-10-16T17:40:07;8.77;;;6.35;;
30072;SDS011;16897;52.422;13.678;2022-10-16T17:44:10;11.63;;;5.90;;
30072;SDS011;16897;52.422;13.678;2022-10-16T17:48:19;8.10;;;5.75;;
30072;SDS011;16897;52.422;13.678;2022-10-16T17:52:20;8.95;;;6.10;;
30072;SDS011;16897;52.422;13.678;2022-10-16T17:56:22;9.63;;;6.55;;
30072;SDS011;16897;52.422;13.678;2022-10-16T18:00:25;8.10;;;5.60;;
30072;SDS011;16897;52.422;13.678;2022-10-16T18:04:26;7.57;;;3.75;;
30072;SDS011;16897;52.422;13.678;2022-10-16T18:08:28;6.70;;;3.40;;
30072;SDS011;16897;52.422;13.678;2022-10-16T18:12:30;2.63;;;1.98;;
30072;SDS011;16897;52.422;13.678;2022-10-16T18:16:32;1.67;;;1.58;;
30072;SDS011;16897;52.422;13.678;2022-10-16T18:20:36;2.38;;;1.60;;
30072;SDS011;16897;52.422;13.678;2022-10-16T18:24:38;1.70;;;1.58;;
30072;SDS011;16897;52.422;13.678;2022-10-16T18:28:40;1.33;;;1.23;;
30072;SDS011;16897;52.422;13.678;2022-10-16T18:32:42;1.30;;;1.20;;
30072;SDS011;16897;52.422;13.678;2022-10-16T18:36:44;2.00;;;1.10;;
30072;SDS011;16897;52.422;13.678;2022-10-16T18:40:46;1.77;;;1.00;;
30072;SDS011;16897;52.422;13.678;2022-10-16T18:44:48;1.17;;;1.08;;
30072;SDS011;16897;52.422;13.678;2022-10-16T18:48:50;2.08;;;1.05;;
30072;SDS011;16897;52.422;13.678;2022-10-16T18:52:53;2.22;;;0.80;;
30072;SDS011;16897;52.422;13.678;2022-10-16T18:56:55;1.00;;;0.98;;
30072;SDS011;16897;52.422;13.678;2022-10-16T19:01:01;3.08;;;2.13;;
30072;SDS011;16897;52.422;13.678;2022-10-16T19:05:04;2.60;;;2.03;;
30072;SDS011;16897;52.422;13.678;2022-10-16T19:09:08;2.28;;;2.03;;
30072;SDS011;16897;52.422;13.678;2022-10-16T19:13:11;2.10;;;1.90;;
30072;SDS011;16897;52.422;13.678;2022-10-16T19:17:12;1.80;;;1.70;;
30072;SDS011;16897;52.422;13.678;2022-10-16T19:21:14;2.55;;;1.58;;
30072;SDS011;16897;52.422;13.678;2022-10-16T19:25:18;2.30;;;1.75;;
30072;SDS011;16897;52.422;13.678;2022-10-16T19:29:22;1.58;;;1.48;;
30072;SDS011;16897;52.422;13.678;2022-10-16T19:33:24;1.48;;;1.38;;
30072;SDS011;16897;52.422;13.678;2022-10-16T19:37:25;1.80;;;1.40;;
30072;SDS011;16897;52.422;13.678;2022-10-16T19:41:29;1.27;;;1.17;;
30072;SDS011;16897;52.422;13.678;2022-10-16T19:45:32;1.42;;;1.27;;
30072;SDS011;16897;52.422;13.678;2022-10-16T19:49:34;1.02;;;1.00;;
30072;SDS011;16897;52.422;13.678;2022-10-16T19:53:35;1.38;;;1.27;;
30072;SDS011;16897;52.422;13.678;2022-10-16T19:57:37;3.20;;;1.73;;
30072;SDS011;16897;52.422;13.678;2022-10-16T20:01:39;4.35;;;2.55;;
30072;SDS011;16897;52.422;13.678;2022-10-16T20:05:53;3.70;;;3.15;;
30072;SDS011;16897;52.422;13.678;2022-10-16T20:14:02;5.22;;;2.80;;
30072;SDS011;16897;52.422;13.678;2022-10-16T20:18:05;5.55;;;3.22;;
30072;SDS011;16897;52.422;13.678;2022-10-16T20:22:07;4.80;;;2.83;;
30072;SDS011;16897;52.422;13.678;2022-10-16T20:26:10;6.28;;;4.18;;
30072;SDS011;16897;52.422;13.678;2022-10-16T20:30:12;4.45;;;2.70;;
30072;SDS011;16897;52.422;13.678;2022-10-16T20:34:14;7.88;;;2.53;;
30072;SDS011;16897;52.422;13.678;2022-10-16T20:38:16;2.28;;;1.88;;
30072;SDS011;16897;52.422;13.678;2022-10-16T20:42:18;2.00;;;1.60;;
30072;SDS011;16897;52.422;13.678;2022-10-16T20:46:21;2.42;;;1.50;;
30072;SDS011;16897;52.422;13.678;2022-10-16T20:50:30;1.58;;;1.48;;
30072;SDS011;16897;52.422;13.678;2022-10-16T20:54:32;1.52;;;1.42;;
30072;SDS011;16897;52.422;13.678;2022-10-16T20:58:34;1.40;;;1.23;;
30072;SDS011;16897;52.422;13.678;2022-10-16T21:02:36;3.30;;;1.70;;
30072;SDS011;16897;52.422;13.678;2022-10-16T21:06:38;4.28;;;1.98;;
30072;SDS011;16897;52.422;13.678;2022-10-16T21:10:39;2.25;;;1.48;;
30072;SDS011;16897;52.422;13.678;2022-10-16T21:14:41;1.65;;;1.40;;
30072;SDS011;16897;52.422;13.678;2022-10-16T21:18:43;3.33;;;1.70;;
30072;SDS011;16897;52.422;13.678;2022-10-16T21:22:44;2.13;;;1.80;;
30072;SDS011;16897;52.422;13.678;2022-10-16T21:26:46;1.42;;;1.33;;
30072;SDS011;16897;52.422;13.678;2022-10-16T21:30:47;3.45;;;2.20;;
30072;SDS011;16897;52.422;13.678;2022-10-16T21:34:49;2.00;;;1.90;;
30072;SDS011;16897;52.422;13.678;2022-10-16T21:38:50;2.03;;;1.83;;
30072;SDS011;16897;52.422;13.678;2022-10-16T21:42:53;2.15;;;1.98;;
30072;SDS011;16897;52.422;13.678;2022-10-16T21:46:54;1.90;;;1.80;;
30072;SDS011;16897;52.422;13.678;2022-10-16T21:50:56;2.15;;;1.75;;
30072;SDS011;16897;52.422;13.678;2022-10-16T21:54:57;2.08;;;1.92;;
30072;SDS011;16897;52.422;13.678;2022-10-16T21:58:59;2.72;;;2.30;;
30072;SDS011;16897;52.422;13.678;2022-10-16T22:03:00;3.13;;;1.95;;
30072;SDS011;16897;52.422;13.678;2022-10-16T22:07:02;2.45;;;2.10;;
30072;SDS011;16897;52.422;13.678;2022-10-16T22:11:07;2.22;;;2.05;;
30072;SDS011;16897;52.422;13.678;2022-10-16T22:15:21;2.60;;;2.40;;
30072;SDS011;16897;52.422;13.678;2022-10-16T22:19:22;4.57;;;2.28;;
30072;SDS011;16897;52.422;13.678;2022-10-16T22:23:24;4.63;;;2.63;;
30072;SDS011;16897;52.422;13.678;2022-10-16T22:27:25;2.40;;;2.20;;
30072;SDS011;16897;52.422;13.678;2022-10-16T22:31:28;1.90;;;1.80;;
30072;SDS011;16897;52.422;13.678;2022-10-16T22:35:30;3.10;;;2.25;;
30072;SDS011;16897;52.422;13.678;2022-10-16T22:39:35;2.65;;;2.40;;
30072;SDS011;16897;52.422;13.678;2022-10-16T22:43:38;2.88;;;2.60;;
30072;SDS011;16897;52.422;13.678;2022-10-16T22:47:43;2.28;;;2.08;;
30072;SDS011;16897;52.422;13.678;2022-10-16T22:51:45;2.70;;;2.50;;
30072;SDS011;16897;52.422;13.678;2022-10-16T22:55:47;2.92;;;2.20;;
30072;SDS011;16897;52.422;13.678;2022-10-16T22:59:48;2.80;;;1.80;;
30072;SDS011;16897;52.422;13.678;2022-10-16T23:03:50;2.05;;;1.92;;
30072;SDS011;16897;52.422;13.678;2022-10-16T23:07:52;7.88;;;3.60;;
30072;SDS011;16897;52.422;13.678;2022-10-16T23:11:54;2.15;;;1.95;;
30072;SDS011;16897;52.422;13.678;2022-10-16T23:15:55;2.22;;;2.03;;
30072;SDS011;16897;52.422;13.678;2022-10-16T23:19:57;3.30;;;1.98;;
30072;SDS011;16897;52.422;13.678;2022-10-16T23:23:59;2.70;;;1.92;;
30072;SDS011;16897;52.422;13.678;2022-10-16T23:28:00;2.58;;;2.17;;
30072;SDS011;16897;52.422;13.678;2022-10-16T23:32:02;2.28;;;2.08;;
30072;SDS011;16897;52.422;13.678;2022-10-16T23:36:08;2.38;;;2.17;;
30072;SDS011;16897;52.422;13.678;2022-10-16T23:40:13;4.97;;;2.83;;
30072;SDS011;16897;52.422;13.678;2022-10-16T23:44:15;4.50;;;2.90;;
30072;SDS011;16897;52.422;13.678;2022-10-16T23:48:16;2.17;;;2.03;;
30072;SDS011;16897;52.422;13.678;2022-10-16T23:52:18;2.75;;;2.05;;
30072;SDS011;16897;52.422;13.678;2022-10-16T23:56:20;3.50;;;2.22;;
